Pagrindinis puslapis
METAR-TAF:

METAR-TAF

Oro uostai :

Čangčunas, Kinija

platuma: 43-54N, ilguma: 125-13E, Aukštis: 238 m

Dabartinis oras

Ataskaita buvo paskelbta 32 minutes, ne 07:00 UTC
Vėjas 23 kt iš Vakarų/Pietvakarių
Temperatūra 34°C
Drėgmė 25%
Slėgis 1001 hPa
Matomumas 10 km arba daugiau
nėra debesų žemiau 1500 m ir nėra kamuolinių lietaus debesų

METAR: ZYCC 190700Z 24012MPS CAVOK 34/11 Q1001 NOSIG

Laikas: 15:32 (07:32 UTC)

Prognozė

Ataskaita buvo paskelbta 4 valandos ir 30 minutes, ne 03:02 UTC
Prognozė galioja nuo 19 metu 06 UTC su 20 metu 06 UTC
Vėjas 16 kt iš Pietvakarių su gūsio iki 29 kt
Matomumas: 6000 m
Mažai debesys ne aukštis 3000 ft

TAF: ZYCC 190302Z 1906/2006 23008G15MPS 6000 FEW030 TX32/1906Z TN20/1920Z

Orai ataskaitas ir orų prognozės (METAR, TAF).

turimą stotys yra geltonos ir raudonos taškus žemėlapyje.

Perkelti pele per norėdami pamatyti stoties vardą.

Tada spustelėkite, norėdami matyti oro stebėjimo ir prognozės.

Norėdami pakeisti žemėlapį: spustelėkite ant žalios mygtukų su juodo kryžiaus žemyn,; žalią mygtuką su brūkšneliu, jei norite nutolinti; arba žalių rodyklių gretimoms žemėlapius.


METAR-TAF: